createdAt,value
2023-09-22T00:02:35.027Z,18.57
2023-09-22T00:06:37.417Z,18.51
2023-09-22T00:10:48.270Z,18.46
2023-09-22T00:14:51.097Z,18.40
2023-09-22T00:18:53.269Z,18.38
2023-09-22T00:22:55.427Z,18.37
2023-09-22T00:26:58.157Z,18.35
2023-09-22T00:31:00.344Z,18.32
2023-09-22T00:35:12.548Z,18.28
2023-09-22T00:39:14.752Z,18.23
2023-09-22T00:43:18.044Z,18.17
2023-09-22T00:47:21.669Z,18.16
2023-09-22T00:51:45.289Z,18.15
2023-09-22T00:55:50.361Z,18.12
2023-09-22T00:59:53.308Z,18.08
2023-09-22T01:03:56.148Z,18.07
2023-09-22T01:07:58.383Z,18.04
2023-09-22T01:12:00.531Z,18.06
2023-09-22T01:16:03.195Z,18.07
2023-09-22T01:20:26.478Z,18.05
2023-09-22T01:24:28.506Z,17.94
2023-09-22T01:28:33.168Z,17.78
2023-09-22T01:32:55.034Z,17.58
2023-09-22T01:36:59.096Z,17.41
2023-09-22T01:41:02.478Z,17.27
2023-09-22T01:45:07.796Z,17.16
2023-09-22T01:49:11.195Z,17.06
2023-09-22T01:53:13.268Z,16.99
2023-09-22T01:57:35.279Z,16.94
2023-09-22T02:01:37.306Z,16.88
2023-09-22T02:05:47.674Z,16.79
2023-09-22T02:09:49.720Z,16.70
2023-09-22T02:13:52.740Z,16.66
2023-09-22T02:17:59.759Z,16.57
2023-09-22T02:22:04.531Z,16.50
2023-09-22T02:26:26.900Z,16.42
2023-09-22T02:30:28.967Z,16.39
2023-09-22T02:34:31.081Z,16.37
2023-09-22T02:38:33.145Z,16.37
2023-09-22T02:42:35.783Z,16.35
2023-09-22T02:46:48.279Z,16.25
2023-09-22T02:50:50.520Z,16.17
2023-09-22T02:54:54.932Z,16.13
2023-09-22T02:59:17.192Z,16.14
2023-09-22T03:03:19.261Z,16.18
2023-09-22T03:07:23.519Z,16.19
2023-09-22T03:11:25.728Z,16.20
2023-09-22T03:15:28.201Z,16.26
2023-09-22T03:19:34.170Z,16.36
2023-09-22T03:23:36.416Z,16.47
2023-09-22T03:27:39.138Z,16.51
2023-09-22T03:32:01.472Z,16.49
2023-09-22T03:36:06.376Z,16.47
2023-09-22T03:40:23.651Z,16.45
2023-09-22T03:44:45.510Z,16.45
2023-09-22T03:48:49.278Z,16.48
2023-09-22T03:53:11.268Z,16.54
2023-09-22T03:57:14.323Z,16.62
2023-09-22T04:01:16.497Z,16.70
2023-09-22T04:05:19.164Z,16.80
2023-09-22T04:09:21.829Z,16.85
2023-09-22T04:13:27.888Z,16.91
2023-09-22T04:17:50.065Z,16.97
2023-09-22T04:21:53.328Z,17.04
2023-09-22T04:26:00.280Z,17.09
2023-09-22T04:30:04.478Z,17.12
2023-09-22T04:34:06.700Z,17.15
2023-09-22T04:38:12.510Z,17.19
2023-09-22T04:42:14.807Z,17.25
2023-09-22T04:46:17.301Z,17.32
2023-09-22T04:50:20.077Z,17.39
2023-09-22T04:54:22.198Z,17.47
2023-09-22T04:58:25.089Z,17.55
2023-09-22T05:02:27.371Z,17.63
2023-09-22T05:06:29.451Z,17.70
2023-09-22T05:10:38.716Z,17.77
2023-09-22T05:14:40.902Z,17.82
2023-09-22T05:18:43.512Z,17.89
2023-09-22T05:22:46.196Z,17.99
2023-09-22T05:26:48.319Z,18.07
2023-09-22T05:30:52.980Z,18.13
2023-09-22T05:34:55.485Z,18.19
2023-09-22T05:38:57.735Z,18.28
2023-09-22T05:42:59.859Z,18.40
2023-09-22T05:47:01.958Z,18.51
2023-09-22T05:51:21.356Z,18.63
2023-09-22T05:55:23.457Z,18.73
2023-09-22T05:59:29.165Z,18.84
2023-09-22T06:03:31.831Z,18.98
2023-09-22T06:07:36.433Z,19.09
2023-09-22T06:11:41.752Z,19.21
2023-09-22T06:15:43.797Z,19.34
2023-09-22T06:19:46.098Z,19.48
2023-09-22T06:23:50.406Z,19.65
2023-09-22T06:27:56.370Z,19.80
2023-09-22T06:32:05.224Z,19.95
2023-09-22T06:36:07.340Z,20.08
2023-09-22T06:40:13.721Z,20.22
2023-09-22T06:44:25.040Z,20.37
2023-09-22T06:48:27.505Z,20.52
2023-09-22T06:52:30.317Z,20.66
2023-09-22T06:56:49.813Z,20.81
2023-09-22T07:01:05.987Z,20.98
2023-09-22T07:05:09.269Z,21.22
2023-09-22T07:09:12.429Z,21.51
2023-09-22T07:13:14.448Z,21.77
2023-09-22T07:17:16.472Z,22.03
2023-09-22T07:21:18.468Z,22.30
2023-09-22T07:25:22.885Z,22.54
2023-09-22T07:29:24.910Z,22.74
2023-09-22T07:33:32.726Z,22.96
2023-09-22T07:37:37.307Z,23.15
2023-09-22T07:41:40.185Z,23.36
2023-09-22T07:45:42.433Z,23.58
2023-09-22T07:49:44.988Z,23.87
2023-09-22T07:53:47.916Z,24.14
2023-09-22T07:57:50.777Z,24.36
2023-09-22T08:01:52.954Z,24.58
2023-09-22T08:05:55.103Z,24.76
2023-09-22T08:09:57.257Z,24.99
2023-09-22T08:14:00.558Z,25.25
2023-09-22T08:18:06.600Z,25.40
2023-09-22T08:22:15.957Z,25.49
2023-09-22T08:26:19.610Z,25.65
2023-09-22T08:30:21.988Z,25.77
2023-09-22T08:34:24.202Z,25.88
2023-09-22T08:38:26.473Z,26.04
2023-09-22T08:42:28.513Z,26.22
2023-09-22T08:46:31.304Z,26.30
2023-09-22T08:50:33.631Z,26.34
2023-09-22T08:54:38.034Z,26.37
2023-09-22T08:58:40.438Z,26.37
2023-09-22T09:02:43.158Z,26.42
2023-09-22T09:06:47.901Z,26.51
2023-09-22T09:11:11.516Z,26.60
2023-09-22T09:15:13.586Z,26.58
2023-09-22T09:19:16.526Z,26.61
2023-09-22T09:23:21.465Z,26.67
2023-09-22T09:27:23.666Z,26.70
2023-09-22T09:31:48.351Z,26.70
2023-09-22T09:35:52.234Z,26.72
2023-09-22T09:39:56.651Z,26.73
2023-09-22T09:44:02.383Z,26.64
2023-09-22T09:48:05.751Z,26.63
2023-09-22T09:52:10.151Z,26.71
2023-09-22T09:56:16.998Z,26.83
2023-09-22T10:00:22.394Z,26.86
2023-09-22T10:04:25.049Z,26.88
2023-09-22T10:08:27.756Z,26.91
2023-09-22T10:12:31.219Z,26.98
2023-09-22T10:16:33.318Z,27.03
2023-09-22T10:20:46.393Z,27.04
2023-09-22T10:25:11.036Z,27.08
2023-09-22T10:29:53.240Z,27.10
2023-09-22T10:33:56.541Z,27.06
2023-09-22T10:38:19.862Z,27.05
2023-09-22T10:42:25.037Z,27.02
2023-09-22T10:46:27.248Z,27.01
2023-09-22T10:50:34.183Z,26.94
2023-09-22T10:55:02.688Z,26.87
2023-09-22T10:59:05.273Z,26.97
2023-09-22T11:03:10.393Z,27.07
2023-09-22T11:07:31.192Z,27.12
2023-09-22T11:11:55.219Z,27.12
2023-09-22T11:16:02.705Z,27.01
2023-09-22T11:20:29.783Z,26.96
2023-09-22T11:24:31.998Z,26.83
2023-09-22T11:28:35.012Z,26.70
2023-09-22T11:32:37.077Z,26.74
2023-09-22T11:37:05.893Z,26.87
2023-09-22T11:41:14.557Z,26.73
2023-09-22T11:45:21.651Z,26.53
2023-09-22T11:49:35.088Z,26.53
2023-09-22T11:53:37.040Z,26.69
2023-09-22T11:57:39.712Z,26.81
2023-09-22T12:01:42.929Z,26.91
2023-09-22T12:06:03.032Z,26.93
2023-09-22T12:10:05.920Z,26.95
2023-09-22T12:14:27.937Z,26.85
2023-09-22T12:18:30.178Z,26.94
2023-09-22T12:22:33.402Z,27.00
2023-09-22T12:26:35.405Z,26.95
2023-09-22T12:30:57.422Z,27.16
2023-09-22T12:35:08.742Z,27.39
2023-09-22T12:39:30.635Z,27.40
2023-09-22T12:43:37.747Z,27.29
2023-09-22T12:47:40.912Z,27.10
2023-09-22T12:51:43.394Z,26.91
2023-09-22T12:55:45.502Z,26.78
2023-09-22T12:59:47.444Z,26.64
2023-09-22T13:03:50.282Z,26.53
2023-09-22T13:07:53.074Z,26.46
2023-09-22T13:11:55.147Z,26.48
2023-09-22T13:15:57.235Z,26.53
2023-09-22T13:19:59.270Z,26.53
2023-09-22T13:24:30.470Z,26.50
2023-09-22T13:28:32.907Z,26.52
2023-09-22T13:32:35.639Z,26.55
2023-09-22T13:36:37.908Z,26.62
2023-09-22T13:40:42.888Z,26.66
2023-09-22T13:44:44.931Z,26.71
2023-09-22T13:48:47.065Z,26.88
2023-09-22T13:52:48.995Z,27.08
2023-09-22T13:56:51.190Z,27.16
2023-09-22T14:00:53.276Z,27.15
2023-09-22T14:04:55.442Z,27.09
2023-09-22T14:09:01.750Z,27.01
2023-09-22T14:13:04.779Z,26.84
2023-09-22T14:17:06.858Z,26.68
2023-09-22T14:21:08.954Z,26.53
2023-09-22T14:25:12.216Z,26.39
2023-09-22T14:29:18.250Z,26.30
2023-09-22T14:33:20.261Z,26.24
2023-09-22T14:37:22.922Z,26.21
2023-09-22T14:41:25.446Z,26.26
2023-09-22T14:45:28.248Z,26.41
2023-09-22T14:49:30.294Z,26.45
2023-09-22T14:53:32.522Z,26.39
2023-09-22T14:57:34.453Z,26.30
2023-09-22T15:01:38.120Z,26.22
2023-09-22T15:05:40.709Z,26.13
2023-09-22T15:09:43.273Z,26.06
2023-09-22T15:13:52.288Z,26.00
2023-09-22T15:17:55.835Z,25.92
2023-09-22T15:21:58.049Z,25.87
2023-09-22T15:26:02.606Z,25.80
2023-09-22T15:30:05.198Z,25.71
2023-09-22T15:34:07.316Z,25.62
2023-09-22T15:38:13.513Z,25.53
2023-09-22T15:42:15.486Z,25.43
2023-09-22T15:46:17.453Z,25.35
2023-09-22T15:50:19.390Z,25.26
2023-09-22T15:54:21.415Z,25.16
2023-09-22T15:58:23.463Z,25.03
2023-09-22T16:02:33.961Z,24.91
2023-09-22T16:06:36.184Z,24.80
2023-09-22T16:10:43.989Z,24.68
2023-09-22T16:14:46.001Z,24.57
2023-09-22T16:18:48.640Z,24.46
2023-09-22T16:22:50.613Z,24.37
2023-09-22T16:26:52.626Z,24.26
2023-09-22T16:30:54.819Z,24.17
2023-09-22T16:34:58.347Z,24.06
2023-09-22T16:39:01.579Z,23.96
2023-09-22T16:43:04.119Z,23.87
2023-09-22T16:47:06.401Z,23.79
2023-09-22T16:51:10.034Z,23.70
2023-09-22T16:55:12.071Z,23.64
2023-09-22T16:59:16.677Z,23.56
2023-09-22T17:03:20.072Z,23.48
2023-09-22T17:07:22.403Z,23.39
2023-09-22T17:11:24.328Z,23.32
2023-09-22T17:15:27.624Z,23.26
2023-09-22T17:19:30.176Z,23.20
2023-09-22T17:23:32.157Z,23.16
2023-09-22T17:27:34.200Z,23.14
2023-09-22T17:31:36.231Z,23.12
2023-09-22T17:35:39.374Z,23.09
2023-09-22T17:39:41.496Z,23.05
2023-09-22T17:43:43.655Z,22.98
2023-09-22T17:47:46.427Z,22.92
2023-09-22T17:51:49.652Z,22.87
2023-09-22T17:55:51.838Z,22.81
2023-09-22T17:59:55.164Z,22.76
2023-09-22T18:03:57.350Z,22.72
2023-09-22T18:07:59.669Z,22.68
2023-09-22T18:12:03.046Z,22.63
2023-09-22T18:16:06.291Z,22.57
2023-09-22T18:20:09.938Z,22.50
2023-09-22T18:24:12.275Z,22.42
2023-09-22T18:28:14.594Z,22.37
2023-09-22T18:32:17.478Z,22.32
2023-09-22T18:36:20.220Z,22.27
2023-09-22T18:40:23.077Z,22.20
2023-09-22T18:44:25.819Z,22.12
2023-09-22T18:48:30.291Z,22.06
2023-09-22T18:52:32.577Z,22.00
2023-09-22T18:56:34.850Z,21.98
2023-09-22T19:00:40.057Z,21.95
2023-09-22T19:04:42.601Z,21.91
2023-09-22T19:08:45.144Z,21.87
2023-09-22T19:12:47.758Z,21.83
2023-09-22T19:16:50.203Z,21.77
2023-09-22T19:20:52.511Z,21.72
2023-09-22T19:24:55.429Z,21.69
2023-09-22T19:28:59.983Z,21.66
2023-09-22T19:33:02.309Z,21.63
2023-09-22T19:37:04.821Z,21.58
2023-09-22T19:41:13.391Z,21.54
2023-09-22T19:45:15.768Z,21.47
2023-09-22T19:49:18.303Z,21.42
2023-09-22T19:53:20.565Z,21.38
2023-09-22T19:57:22.818Z,21.33
2023-09-22T20:01:26.463Z,21.27
2023-09-22T20:05:28.984Z,21.20
2023-09-22T20:09:31.228Z,21.16
2023-09-22T20:13:33.790Z,21.14
2023-09-22T20:17:36.251Z,21.10
2023-09-22T20:21:40.050Z,21.05
2023-09-22T20:25:42.338Z,20.99
2023-09-22T20:29:49.444Z,20.94
2023-09-22T20:33:52.026Z,20.89
2023-09-22T20:37:54.333Z,20.86
2023-09-22T20:41:58.015Z,20.85
2023-09-22T20:46:01.046Z,20.83
2023-09-22T20:50:03.396Z,20.78
2023-09-22T20:54:08.173Z,20.74
2023-09-22T20:58:10.245Z,20.70
2023-09-22T21:02:12.244Z,20.69
2023-09-22T21:06:14.306Z,20.71
2023-09-22T21:10:16.649Z,20.71
2023-09-22T21:14:18.597Z,20.70
2023-09-22T21:18:20.805Z,20.67
2023-09-22T21:22:22.697Z,20.60
2023-09-22T21:26:25.030Z,20.56
2023-09-22T21:30:27.048Z,20.53
2023-09-22T21:38:31.006Z,20.49
2023-09-22T21:42:33.731Z,20.41
2023-09-22T21:46:35.916Z,20.30
2023-09-22T21:50:42.381Z,20.21
2023-09-22T21:54:47.520Z,20.18
2023-09-22T21:58:54.260Z,20.16
2023-09-22T22:02:56.668Z,20.15
2023-09-22T22:07:00.004Z,20.16
2023-09-22T22:11:05.886Z,20.13
2023-09-22T22:15:08.726Z,20.11
2023-09-22T22:19:10.685Z,20.11
2023-09-22T22:23:18.001Z,20.10
2023-09-22T22:27:23.347Z,20.11
2023-09-22T22:31:26.046Z,20.16
2023-09-22T22:35:29.905Z,20.19
2023-09-22T22:39:31.972Z,20.21
2023-09-22T22:43:34.749Z,20.23
2023-09-22T22:47:37.515Z,20.25
2023-09-22T22:51:41.899Z,20.25
2023-09-22T22:55:44.328Z,20.24
2023-09-22T22:59:48.440Z,20.23
2023-09-22T23:03:50.542Z,20.26
2023-09-22T23:07:53.450Z,20.30
2023-09-22T23:11:55.527Z,20.31
2023-09-22T23:16:00.236Z,20.35
2023-09-22T23:20:07.851Z,20.35
2023-09-22T23:24:14.069Z,20.33
2023-09-22T23:28:15.997Z,20.30
2023-09-22T23:32:22.380Z,20.28
2023-09-22T23:36:24.350Z,20.26
2023-09-22T23:40:29.290Z,20.27
2023-09-22T23:44:31.243Z,20.27
2023-09-22T23:48:33.836Z,20.28
2023-09-22T23:52:36.123Z,20.27
2023-09-22T23:56:40.862Z,20.22
